createdAt,value
2022-08-11T00:02:07.071Z,101192.88
2022-08-11T00:04:45.556Z,101193.70
2022-08-11T00:07:17.067Z,101190.89
2022-08-11T00:09:49.463Z,101193.06
2022-08-11T00:12:19.155Z,101194.70
2022-08-11T00:15:01.138Z,101192.45
2022-08-11T00:17:34.624Z,101193.96
2022-08-11T00:20:18.034Z,101194.56
2022-08-11T00:22:52.524Z,101192.47
2022-08-11T00:25:23.285Z,101191.27
2022-08-11T00:27:53.349Z,101187.90
2022-08-11T00:30:24.166Z,101183.80
2022-08-11T00:32:56.832Z,101180.28
2022-08-11T00:35:54.183Z,101182.15
2022-08-11T00:38:27.458Z,101181.83
2022-08-11T00:41:21.357Z,101180.01
2022-08-11T00:44:36.864Z,101180.89
2022-08-11T00:47:23.101Z,101183.41
2022-08-11T00:50:41.586Z,101179.02
2022-08-11T00:53:36.526Z,101178.84
2022-08-11T00:56:37.947Z,101181.24
2022-08-11T00:59:57.971Z,101183.73
2022-08-11T01:02:58.707Z,101179.32
2022-08-11T01:06:08.091Z,101179.75
2022-08-11T01:09:31.355Z,101179.39
2022-08-11T01:12:56.545Z,101180.75
2022-08-11T01:16:08.061Z,101179.66
2022-08-11T01:20:47.803Z,101181.20
2022-08-11T01:23:07.413Z,101176.95
2022-08-11T01:25:57.917Z,101176.83
2022-08-11T01:48:22.070Z,101174.23
2022-08-11T01:51:27.931Z,101172.61
2022-08-11T01:54:39.073Z,101171.15
2022-08-11T01:57:31.109Z,101170.56
2022-08-11T02:00:19.318Z,101173.96
2022-08-11T02:03:13.943Z,101175.46
2022-08-11T02:06:42.515Z,101176.48
2022-08-11T02:10:14.746Z,101175.07
2022-08-11T02:13:10.241Z,101176.50
2022-08-11T02:15:57.908Z,101175.16
2022-08-11T02:19:00.226Z,101177.55
2022-08-11T02:22:10.978Z,101177.80
2022-08-11T02:24:59.273Z,101176.89
2022-08-11T02:27:42.387Z,101176.89
2022-08-11T02:30:29.264Z,101178.32
2022-08-11T02:33:30.352Z,101175.20
2022-08-11T02:36:24.095Z,101175.38
2022-08-11T02:39:13.507Z,101176.00
2022-08-11T02:42:32.587Z,101179.69
2022-08-11T02:46:18.086Z,101180.15
2022-08-11T02:50:09.348Z,101181.14
2022-08-11T02:53:04.010Z,101178.89
2022-08-11T02:55:57.326Z,101180.14
2022-08-11T02:59:10.275Z,101181.56
2022-08-11T03:02:05.558Z,101181.19
2022-08-11T03:05:01.980Z,101186.98
2022-08-11T03:08:15.607Z,101189.39
2022-08-11T03:11:40.885Z,101191.23
2022-08-11T03:14:54.839Z,101195.48
2022-08-11T03:25:25.264Z,101198.95
2022-08-11T03:28:48.649Z,101198.29
2022-08-11T03:31:40.947Z,101201.94
2022-08-11T03:34:34.119Z,101203.45
2022-08-11T03:37:41.631Z,101205.44
2022-08-11T03:40:58.607Z,101203.77
2022-08-11T03:44:20.429Z,101203.27
2022-08-11T03:47:52.638Z,101202.92
2022-08-11T03:51:13.515Z,101200.39
2022-08-11T03:54:32.528Z,101203.36
2022-08-11T03:58:02.210Z,101200.47
2022-08-11T04:01:43.588Z,101203.59
2022-08-11T04:04:49.892Z,101207.77
2022-08-11T04:08:24.227Z,101206.23
2022-08-11T04:28:50.323Z,101209.02
2022-08-11T04:31:51.089Z,101211.14
2022-08-11T04:34:44.741Z,101213.64
2022-08-11T04:37:38.381Z,101213.82
2022-08-11T04:40:54.549Z,101213.67
2022-08-11T04:44:06.663Z,101211.41
2022-08-11T04:48:01.898Z,101211.15
2022-08-11T04:51:17.080Z,101211.76
2022-08-11T04:54:17.857Z,101208.52
2022-08-11T04:57:09.841Z,101215.77
2022-08-11T05:00:19.813Z,101217.63
2022-08-11T05:03:30.446Z,101216.98
2022-08-11T05:06:32.165Z,101219.79
2022-08-11T05:09:25.186Z,101224.36
2022-08-11T05:12:14.176Z,101219.44
2022-08-11T05:15:12.065Z,101216.44
2022-08-11T05:18:33.840Z,101215.20
2022-08-11T05:21:45.090Z,101212.13
2022-08-11T05:25:02.697Z,101213.73
2022-08-11T05:28:48.344Z,101213.77
2022-08-11T05:31:51.234Z,101210.74
2022-08-11T05:34:56.901Z,101213.90
2022-08-11T05:38:06.319Z,101213.55
2022-08-11T05:41:13.092Z,101208.17
2022-08-11T05:44:21.174Z,101208.15
2022-08-11T05:48:12.576Z,101206.92
2022-08-11T05:51:29.882Z,101208.28
2022-08-11T05:54:36.387Z,101206.23
2022-08-11T05:57:44.003Z,101209.55
2022-08-11T06:00:12.844Z,101210.95
2022-08-11T06:02:51.682Z,101214.42
2022-08-11T06:05:43.622Z,101215.91
2022-08-11T06:08:16.784Z,101212.55
2022-08-11T06:10:49.016Z,101213.86
2022-08-11T06:13:21.155Z,101215.53
2022-08-11T06:15:53.740Z,101211.96
2022-08-11T06:18:33.149Z,101212.97
2022-08-11T06:21:09.938Z,101214.36
2022-08-11T06:23:43.099Z,101215.84
2022-08-11T06:26:17.066Z,101215.30
2022-08-11T06:28:50.389Z,101222.42
2022-08-11T06:31:26.499Z,101220.46
2022-08-11T06:34:27.881Z,101216.84
2022-08-11T06:38:02.289Z,101216.88
2022-08-11T06:41:18.817Z,101218.80
2022-08-11T06:44:06.408Z,101219.98
2022-08-11T06:46:46.514Z,101224.96
2022-08-11T06:49:44.422Z,101220.64
2022-08-11T06:52:35.564Z,101223.41
2022-08-11T06:55:55.979Z,101217.01
2022-08-11T06:58:24.315Z,101213.02
2022-08-11T07:00:59.457Z,101206.44
2022-08-11T07:03:35.564Z,101203.77
2022-08-11T07:06:41.514Z,101201.02
2022-08-11T07:09:59.430Z,101200.17
2022-08-11T07:12:58.956Z,101199.38
2022-08-11T07:16:11.153Z,101196.86
2022-08-11T07:18:56.942Z,101194.64
2022-08-11T07:22:03.181Z,101197.66
2022-08-11T07:25:08.709Z,101196.77
2022-08-11T07:28:05.170Z,101191.20
2022-08-11T07:30:40.298Z,101189.58
2022-08-11T07:33:14.298Z,101187.96
2022-08-11T07:36:07.147Z,101185.39
2022-08-11T07:38:53.100Z,101187.02
2022-08-11T07:41:26.088Z,101186.35
2022-08-11T07:44:09.521Z,101186.36
2022-08-11T07:47:25.889Z,101189.66
2022-08-11T07:50:16.511Z,101186.34
2022-08-11T07:52:52.862Z,101187.59
2022-08-11T07:55:48.981Z,101191.71
2022-08-11T07:58:45.594Z,101194.03
2022-08-11T08:01:50.066Z,101190.81
2022-08-11T08:04:49.890Z,101195.58
2022-08-11T08:08:05.623Z,101187.70
2022-08-11T08:11:52.788Z,101187.35
2022-08-11T08:15:17.265Z,101184.95
2022-08-11T08:18:27.001Z,101180.56
2022-08-11T08:22:38.928Z,101187.22
2022-08-11T08:26:27.009Z,101184.86
2022-08-11T08:30:19.305Z,101183.24
2022-08-11T08:33:55.681Z,101184.83
2022-08-11T08:37:53.067Z,101180.30
2022-08-11T08:46:20.117Z,101179.15
2022-08-11T08:50:16.353Z,101175.98
2022-08-11T08:53:35.549Z,101177.14
2022-08-11T08:57:10.396Z,101180.25
2022-08-11T09:01:09.214Z,101169.88
2022-08-11T09:05:09.367Z,101168.77
2022-08-11T09:12:36.395Z,101153.38
2022-08-11T09:16:07.809Z,101157.45
2022-08-11T09:27:20.970Z,101156.45
2022-08-11T09:30:51.838Z,101152.08
2022-08-11T09:34:41.370Z,101149.70
2022-08-11T09:37:56.348Z,101149.33
2022-08-11T09:40:32.553Z,101150.88
2022-08-11T09:43:31.304Z,101146.48
2022-08-11T09:46:29.318Z,101146.35
2022-08-11T09:49:40.810Z,101140.59
2022-08-11T09:53:03.511Z,101136.03
2022-08-11T09:55:55.237Z,101129.03
2022-08-11T09:58:41.681Z,101131.74
2022-08-11T10:01:27.771Z,101138.73
2022-08-11T10:04:25.770Z,101132.39
2022-08-11T10:07:11.025Z,101132.30
2022-08-11T10:10:03.573Z,101128.35
2022-08-11T10:12:36.012Z,101126.00
2022-08-11T10:15:28.314Z,101124.38
2022-08-11T10:18:32.804Z,101123.30
2022-08-11T10:21:25.220Z,101122.77
2022-08-11T10:24:17.791Z,101122.82
2022-08-11T10:26:56.610Z,101119.77
2022-08-11T10:29:52.202Z,101113.52
2022-08-11T10:32:57.329Z,101115.13
2022-08-11T10:35:34.170Z,101118.25
2022-08-11T10:38:10.079Z,101113.88
2022-08-11T10:40:42.900Z,101107.92
2022-08-11T10:44:01.152Z,101105.82
2022-08-11T10:46:31.375Z,101101.19
2022-08-11T10:49:04.042Z,101099.96
2022-08-11T10:51:53.771Z,101104.45
2022-08-11T10:54:42.996Z,101101.33
2022-08-11T10:57:33.256Z,101094.20
2022-08-11T11:00:07.303Z,101098.27
2022-08-11T11:02:38.695Z,101098.73
2022-08-11T11:06:12.544Z,101090.23
2022-08-11T11:09:00.023Z,101081.89
2022-08-11T11:11:58.489Z,101069.25
2022-08-11T11:14:59.019Z,101070.59
2022-08-11T11:18:02.339Z,101071.20
2022-08-11T11:20:47.323Z,101073.52
2022-08-11T11:23:20.425Z,101073.42
2022-08-11T11:26:17.170Z,101073.40
2022-08-11T11:29:41.244Z,101071.80
2022-08-11T11:32:28.142Z,101071.25
2022-08-11T11:36:01.451Z,101070.52
2022-08-11T11:38:32.185Z,101066.96
2022-08-11T11:41:21.926Z,101064.25
2022-08-11T11:43:57.136Z,101054.99
2022-08-11T11:46:31.068Z,101043.14
2022-08-11T11:49:16.819Z,101040.52
2022-08-11T11:51:52.945Z,101037.02
2022-08-11T11:54:24.943Z,101043.13
2022-08-11T11:56:58.072Z,101040.48
2022-08-11T11:59:49.160Z,101031.10
2022-08-11T12:02:21.037Z,101025.36
2022-08-11T12:04:51.698Z,101020.00
2022-08-11T12:07:40.892Z,101015.36
2022-08-11T12:10:11.084Z,101013.45
2022-08-11T12:12:59.787Z,101012.52
2022-08-11T12:16:04.494Z,101009.87
2022-08-11T12:18:19.962Z,101005.28
2022-08-11T12:20:49.825Z,100996.34
2022-08-11T12:23:38.220Z,100992.59
2022-08-11T12:26:27.644Z,100987.12
2022-08-11T12:28:59.341Z,100976.94
2022-08-11T12:31:33.648Z,100975.04
2022-08-11T12:34:06.502Z,100973.63
2022-08-11T12:36:46.993Z,100971.66
2022-08-11T12:40:17.187Z,100977.15
2022-08-11T12:42:55.268Z,100968.48
2022-08-11T12:45:28.804Z,100967.61
2022-08-11T12:48:59.879Z,100967.45
2022-08-11T12:52:14.083Z,100966.44
2022-08-11T12:56:07.367Z,100962.85
2022-08-11T12:58:35.752Z,100955.69
2022-08-11T13:01:24.005Z,100949.02
2022-08-11T13:04:14.234Z,100954.18
2022-08-11T13:06:44.001Z,100950.30
2022-08-11T13:09:16.282Z,100948.34
2022-08-11T13:12:06.209Z,100948.73
2022-08-11T13:14:38.398Z,100946.30
2022-08-11T13:17:44.076Z,100945.46
2022-08-11T13:20:20.597Z,100942.54
2022-08-11T13:22:53.978Z,100935.21
2022-08-11T13:25:27.827Z,100934.95
2022-08-11T13:28:00.443Z,100933.84
2022-08-11T13:30:51.625Z,100933.07
2022-08-11T13:33:23.104Z,100933.17
2022-08-11T13:35:56.225Z,100931.66
2022-08-11T13:38:26.065Z,100931.84
2022-08-11T13:40:59.359Z,100927.46
2022-08-11T13:43:31.345Z,100928.31
2022-08-11T13:46:31.830Z,100928.06
2022-08-11T13:49:04.395Z,100927.08
2022-08-11T13:51:35.328Z,100932.99
2022-08-11T13:54:30.686Z,100925.66
2022-08-11T13:57:09.164Z,100924.25
2022-08-11T13:59:52.503Z,100909.45
2022-08-11T14:02:30.674Z,100903.28
2022-08-11T14:05:16.464Z,100907.11
2022-08-11T14:08:31.778Z,100901.24
2022-08-11T14:12:22.938Z,100902.92
2022-08-11T14:14:22.538Z,100905.93
2022-08-11T14:16:57.264Z,100904.65
2022-08-11T14:19:28.551Z,100903.30
2022-08-11T14:22:08.867Z,100910.65
2022-08-11T14:24:45.696Z,100910.02
2022-08-11T14:28:30.497Z,100912.91
2022-08-11T14:30:30.022Z,100906.25
2022-08-11T14:32:59.795Z,100899.04
2022-08-11T14:35:30.981Z,100897.94
2022-08-11T14:38:04.478Z,100899.33
2022-08-11T14:40:55.645Z,100891.65
2022-08-11T14:44:14.154Z,100887.84
2022-08-11T14:47:02.279Z,100886.94
2022-08-11T14:49:36.881Z,100890.62
2022-08-11T14:52:28.008Z,100891.39
2022-08-11T14:55:15.471Z,100892.95
2022-08-11T14:57:55.896Z,100894.73
2022-08-11T15:00:36.213Z,100895.14
2022-08-11T15:03:11.933Z,100894.12
2022-08-11T15:05:57.733Z,100896.58
2022-08-11T15:08:51.869Z,100898.71
2022-08-11T15:11:45.337Z,100903.89
2022-08-11T15:14:42.440Z,100904.80
2022-08-11T15:17:14.743Z,100899.77
2022-08-11T15:20:03.962Z,100900.05
2022-08-11T15:22:53.116Z,100899.67
2022-08-11T15:25:23.793Z,100899.36
2022-08-11T15:28:15.136Z,100898.57
2022-08-11T15:31:09.938Z,100894.98
2022-08-11T15:33:59.562Z,100888.81
2022-08-11T15:36:50.566Z,100892.61
2022-08-11T15:40:04.662Z,100889.15
2022-08-11T15:42:57.317Z,100889.16
2022-08-11T15:45:46.953Z,100890.06
2022-08-11T15:48:49.684Z,100891.06
2022-08-11T15:51:30.266Z,100884.99
2022-08-11T15:54:09.257Z,100878.18
2022-08-11T15:56:43.578Z,100872.06
2022-08-11T15:59:41.722Z,100868.52
2022-08-11T16:02:34.380Z,100872.63
2022-08-11T16:05:07.729Z,100868.72
2022-08-11T16:07:41.203Z,100866.05
2022-08-11T16:10:31.104Z,100871.30
2022-08-11T16:13:07.602Z,100878.71
2022-08-11T16:16:01.105Z,100882.94
2022-08-11T16:18:41.604Z,100879.14
2022-08-11T16:21:33.956Z,100881.05
2022-08-11T16:24:08.590Z,100878.96
2022-08-11T16:27:11.066Z,100883.10
2022-08-11T16:29:34.415Z,100884.80
2022-08-11T16:32:19.701Z,100882.48
2022-08-11T16:35:19.868Z,100882.79
2022-08-11T16:38:09.828Z,100879.38
2022-08-11T16:40:41.660Z,100878.11
2022-08-11T16:43:34.487Z,100878.23
2022-08-11T16:46:25.535Z,100885.34
2022-08-11T16:48:57.586Z,100882.92
2022-08-11T16:51:29.465Z,100883.80
2022-08-11T16:54:05.124Z,100882.63
2022-08-11T16:56:58.145Z,100885.48
2022-08-11T16:59:36.757Z,100883.68
2022-08-11T17:02:11.019Z,100881.56
2022-08-11T17:05:09.931Z,100881.83
2022-08-11T17:08:02.380Z,100881.36
2022-08-11T17:11:03.650Z,100880.19
2022-08-11T17:13:53.777Z,100881.81
2022-08-11T17:16:31.904Z,100882.70
2022-08-11T17:20:42.264Z,100880.09
2022-08-11T17:22:39.589Z,100879.17
2022-08-11T17:25:13.380Z,100878.35
2022-08-11T17:27:44.437Z,100880.09
2022-08-11T17:30:15.154Z,100881.14
2022-08-11T17:33:07.756Z,100885.19
2022-08-11T17:35:41.934Z,100886.35
2022-08-11T17:38:34.696Z,100888.30
2022-08-11T17:41:44.229Z,100887.92
2022-08-11T17:44:33.042Z,100888.45
2022-08-11T17:47:25.464Z,100891.93
2022-08-11T17:49:56.611Z,100899.17
2022-08-11T17:53:06.192Z,100899.84
2022-08-11T17:55:57.974Z,100903.17
2022-08-11T17:58:46.371Z,100903.36
2022-08-11T18:01:17.632Z,100907.72
2022-08-11T18:03:56.318Z,100905.45
2022-08-11T18:06:34.821Z,100911.98
2022-08-11T18:09:27.325Z,100910.10
2022-08-11T18:12:18.484Z,100911.20
2022-08-11T18:15:09.773Z,100910.34
2022-08-11T18:18:00.906Z,100910.77
2022-08-11T18:20:48.853Z,100909.84
2022-08-11T18:23:45.784Z,100910.34
2022-08-11T18:26:39.946Z,100907.40
2022-08-11T18:29:31.123Z,100911.02
2022-08-11T18:32:49.069Z,100910.16
2022-08-11T18:35:39.691Z,100918.69
2022-08-11T18:38:34.754Z,100915.05
2022-08-11T18:41:27.599Z,100918.02
2022-08-11T18:44:22.622Z,100919.86
2022-08-11T18:47:12.574Z,100918.06
2022-08-11T18:50:05.611Z,100919.56
2022-08-11T18:52:55.264Z,100923.60
2022-08-11T18:55:43.964Z,100931.38
2022-08-11T18:58:36.045Z,100931.35
2022-08-11T19:01:27.837Z,100930.98
2022-08-11T19:04:19.176Z,100935.41
2022-08-11T19:07:15.496Z,100938.98
2022-08-11T19:10:08.582Z,100938.52
2022-08-11T19:13:00.757Z,100937.11
2022-08-11T19:15:51.223Z,100936.08
2022-08-11T19:18:42.029Z,100941.45
2022-08-11T19:21:31.785Z,100942.98
2022-08-11T19:24:22.885Z,100944.23
2022-08-11T19:27:12.392Z,100949.77
2022-08-11T19:30:04.959Z,100946.78
2022-08-11T19:33:02.295Z,100945.20
2022-08-11T19:35:50.640Z,100946.70
2022-08-11T19:38:39.823Z,100951.45
2022-08-11T19:41:56.937Z,100956.83
2022-08-11T19:44:40.696Z,100958.92
2022-08-11T19:47:30.686Z,100962.70
2022-08-11T19:50:24.143Z,100966.61
2022-08-11T19:53:17.310Z,100968.84
2022-08-11T19:56:11.327Z,100970.84
2022-08-11T19:58:59.628Z,100976.35
2022-08-11T20:02:05.329Z,100978.09
2022-08-11T20:04:54.996Z,100979.16
2022-08-11T20:07:44.756Z,100979.13
2022-08-11T20:10:36.186Z,100976.08
2022-08-11T20:13:28.474Z,100975.84
2022-08-11T20:16:18.560Z,100974.70
2022-08-11T20:19:09.592Z,100975.02
2022-08-11T20:22:01.805Z,100973.70
2022-08-11T20:24:56.662Z,100976.98
2022-08-11T20:27:45.047Z,100981.06
2022-08-11T20:30:39.077Z,100983.19
2022-08-11T20:33:28.791Z,100982.10
2022-08-11T20:36:17.437Z,100981.80
2022-08-11T20:39:08.623Z,100985.59
2022-08-11T20:42:00.586Z,100985.54
2022-08-11T20:44:51.249Z,100987.41
2022-08-11T20:47:58.869Z,100991.36
2022-08-11T20:50:50.691Z,100993.44
2022-08-11T20:53:43.420Z,100996.65
2022-08-11T20:56:32.407Z,100996.75
2022-08-11T20:59:25.221Z,100993.98
2022-08-11T21:02:15.616Z,100991.90
2022-08-11T21:05:06.708Z,100990.89
2022-08-11T21:07:59.107Z,100987.85
2022-08-11T21:10:52.012Z,100992.05
2022-08-11T21:13:43.187Z,100995.20
2022-08-11T21:16:36.420Z,100995.41
2022-08-11T21:20:00.718Z,100996.37
2022-08-11T21:22:59.644Z,100999.14
2022-08-11T21:26:02.523Z,100999.92
2022-08-11T21:28:52.862Z,100998.21
2022-08-11T21:31:41.386Z,100996.11
2022-08-11T21:34:31.546Z,100997.02
2022-08-11T21:37:20.838Z,101001.13
2022-08-11T21:40:17.003Z,101004.77
2022-08-11T21:43:07.725Z,101001.45
2022-08-11T21:45:57.935Z,101000.41
2022-08-11T21:48:48.041Z,100997.93
2022-08-11T21:51:41.589Z,100997.27
2022-08-11T21:54:38.177Z,101001.75
2022-08-11T21:57:30.715Z,101002.55
2022-08-11T22:00:21.529Z,101005.52
2022-08-11T22:03:11.213Z,101003.65
2022-08-11T22:06:01.096Z,101006.45
2022-08-11T22:08:48.662Z,101004.71
2022-08-11T22:11:37.787Z,101004.59
2022-08-11T22:14:25.844Z,101004.89
2022-08-11T22:17:16.410Z,101000.66
2022-08-11T22:20:04.944Z,101001.32
2022-08-11T22:22:54.084Z,100998.90
2022-08-11T22:25:44.228Z,100996.70
2022-08-11T22:28:42.148Z,100996.36
2022-08-11T22:31:32.392Z,100993.67
2022-08-11T22:34:21.415Z,100994.17
2022-08-11T22:37:09.885Z,100993.65
2022-08-11T22:40:18.481Z,100995.23
2022-08-11T22:43:10.914Z,100993.60
2022-08-11T22:46:00.597Z,100989.65
2022-08-11T22:48:50.155Z,100987.84
2022-08-11T22:51:40.892Z,100988.06
2022-08-11T22:54:29.232Z,100994.16
2022-08-11T22:57:20.009Z,100996.04
2022-08-11T23:00:12.024Z,100992.69
2022-08-11T23:03:03.416Z,100997.89
2022-08-11T23:05:54.806Z,101003.85
2022-08-11T23:08:43.749Z,101006.21
2022-08-11T23:12:04.751Z,101005.56
2022-08-11T23:14:44.653Z,100998.70
2022-08-11T23:17:36.042Z,101002.98
2022-08-11T23:20:41.523Z,101000.38
2022-08-11T23:23:40.148Z,101001.15
2022-08-11T23:26:30.031Z,101001.48
2022-08-11T23:29:22.549Z,101000.48
2022-08-11T23:32:15.192Z,101001.55
2022-08-11T23:35:38.715Z,101001.55
2022-08-11T23:38:16.092Z,101000.66
2022-08-11T23:41:09.508Z,100996.40
2022-08-11T23:43:58.537Z,100997.21
2022-08-11T23:46:49.928Z,100997.06
2022-08-11T23:49:39.821Z,100997.33
2022-08-11T23:52:32.845Z,100998.30
2022-08-11T23:55:21.896Z,100996.64
2022-08-11T23:58:11.937Z,101001.49
